createdAt,value
2018-03-17T00:02:42.139Z,4.47
2018-03-17T00:07:44.702Z,3.93
2018-03-17T00:12:47.233Z,4.37
2018-03-17T00:17:49.811Z,3.33
2018-03-17T00:22:52.353Z,4.23
2018-03-17T00:27:54.894Z,4.07
2018-03-17T00:32:57.441Z,3.97
2018-03-17T00:38:00.005Z,4.47
2018-03-17T00:43:02.569Z,4.17
2018-03-17T00:48:05.106Z,3.50
2018-03-17T00:53:07.652Z,3.60
2018-03-17T00:58:10.195Z,3.63
2018-03-17T01:03:12.749Z,3.97
2018-03-17T01:08:15.286Z,4.40
2018-03-17T01:13:17.815Z,4.07
2018-03-17T01:18:20.346Z,4.67
2018-03-17T01:23:22.913Z,4.13
2018-03-17T01:28:25.466Z,4.30
2018-03-17T01:33:28.006Z,4.50
2018-03-17T01:38:30.568Z,4.10
2018-03-17T01:43:33.902Z,5.17
2018-03-17T01:48:37.226Z,5.30
2018-03-17T01:53:39.778Z,6.20
2018-03-17T01:58:43.127Z,5.87
2018-03-17T02:03:48.011Z,5.80
2018-03-17T02:08:50.561Z,6.50
2018-03-17T02:13:53.882Z,7.47
2018-03-17T02:18:56.423Z,5.60
2018-03-17T02:23:59.086Z,6.00
2018-03-17T02:29:02.409Z,7.30
2018-03-17T02:34:05.718Z,7.67
2018-03-17T02:39:08.259Z,7.37
2018-03-17T02:44:11.103Z,7.63
2018-03-17T02:49:13.640Z,6.20
2018-03-17T02:54:16.965Z,7.37
2018-03-17T02:59:19.536Z,8.40
2018-03-17T03:04:22.072Z,8.43
2018-03-17T03:09:24.610Z,7.60
2018-03-17T03:14:27.145Z,9.63
2018-03-17T03:19:30.462Z,9.33
2018-03-17T03:24:33.034Z,8.97
2018-03-17T03:29:35.582Z,8.07
2018-03-17T03:34:38.170Z,8.00
2018-03-17T03:39:41.480Z,9.10
2018-03-17T03:44:44.784Z,8.00
2018-03-17T03:49:47.340Z,7.40
2018-03-17T03:54:49.888Z,9.37
2018-03-17T03:59:52.422Z,8.83
2018-03-17T04:04:55.107Z,9.80
2018-03-17T04:09:57.678Z,11.83
2018-03-17T04:15:00.235Z,11.30
2018-03-17T04:20:02.793Z,12.67
2018-03-17T04:25:06.135Z,13.20
2018-03-17T04:30:08.681Z,12.67
2018-03-17T04:35:11.233Z,13.87
2018-03-17T04:40:13.768Z,13.33
2018-03-17T04:45:16.347Z,11.93
2018-03-17T04:50:18.910Z,16.33
2018-03-17T04:55:22.214Z,17.27
2018-03-17T05:00:24.785Z,13.30
2018-03-17T05:05:27.330Z,12.10
2018-03-17T05:10:29.884Z,13.20
2018-03-17T05:15:33.187Z,12.57
2018-03-17T05:20:35.745Z,11.40
2018-03-17T05:25:38.298Z,13.17
2018-03-17T05:30:40.876Z,11.93
2018-03-17T05:35:43.445Z,10.57
2018-03-17T05:40:46.758Z,12.97
2018-03-17T05:45:49.289Z,15.73
2018-03-17T05:50:52.151Z,12.67
2018-03-17T05:55:54.818Z,11.50
2018-03-17T06:00:57.376Z,12.33
2018-03-17T06:06:00.692Z,12.07
2018-03-17T06:11:04.026Z,12.07
2018-03-17T06:16:06.582Z,13.37
2018-03-17T06:21:09.101Z,11.17
2018-03-17T06:26:12.419Z,14.20
2018-03-17T06:31:15.730Z,12.43
2018-03-17T06:36:18.273Z,12.43
2018-03-17T06:41:20.800Z,11.90
2018-03-17T06:46:23.336Z,10.00
2018-03-17T06:51:26.648Z,10.20
2018-03-17T06:56:29.508Z,10.50
2018-03-17T07:01:32.100Z,11.77
2018-03-17T07:06:34.653Z,9.73
2018-03-17T07:11:37.201Z,11.33
2018-03-17T07:16:39.759Z,11.23
2018-03-17T07:21:42.279Z,10.57
2018-03-17T07:26:44.818Z,10.50
2018-03-17T07:31:47.363Z,11.63
2018-03-17T07:36:49.906Z,11.33
2018-03-17T07:41:52.491Z,11.33
2018-03-17T07:46:55.055Z,10.47
2018-03-17T07:51:58.362Z,12.00
2018-03-17T07:57:00.919Z,11.47
2018-03-17T08:02:03.500Z,12.83
2018-03-17T08:07:06.065Z,10.50
2018-03-17T08:12:09.704Z,12.53
2018-03-17T08:17:13.044Z,11.30
2018-03-17T08:22:15.642Z,11.90
2018-03-17T08:27:18.202Z,13.00
2018-03-17T08:32:20.757Z,10.90
2018-03-17T08:37:23.294Z,12.87
2018-03-17T08:42:25.844Z,13.63
2018-03-17T08:47:28.382Z,14.37
2018-03-17T08:52:31.832Z,13.93
2018-03-17T09:02:48.213Z,12.60
2018-03-17T09:07:50.750Z,11.97
2018-03-17T09:12:53.302Z,13.07
2018-03-17T09:17:56.068Z,15.30
2018-03-17T09:22:58.694Z,13.50
2018-03-17T09:28:02.026Z,14.27
2018-03-17T09:33:04.589Z,13.80
2018-03-17T09:38:07.230Z,13.83
2018-03-17T09:43:09.802Z,10.60
2018-03-17T09:48:12.384Z,11.63
2018-03-17T09:53:16.710Z,9.03
2018-03-17T09:58:19.392Z,12.57
2018-03-17T10:03:22.067Z,14.23
2018-03-17T10:08:25.879Z,10.73
2018-03-17T10:13:29.346Z,11.40
2018-03-17T10:18:32.243Z,11.53
2018-03-17T10:23:34.830Z,10.80
2018-03-17T10:28:38.211Z,12.33
2018-03-17T10:33:40.747Z,12.00
2018-03-17T10:38:43.334Z,12.10
2018-03-17T10:43:46.954Z,11.43
2018-03-17T10:48:50.481Z,12.77
2018-03-17T10:53:53.386Z,11.57
2018-03-17T10:58:55.953Z,13.67
2018-03-17T11:03:58.570Z,13.30
2018-03-17T11:09:01.156Z,10.83
2018-03-17T11:14:03.821Z,13.17
2018-03-17T11:19:06.361Z,14.57
2018-03-17T11:24:08.931Z,14.97
2018-03-17T11:29:11.505Z,11.17
2018-03-17T11:34:14.068Z,12.60
2018-03-17T11:39:16.690Z,10.87
2018-03-17T11:44:19.250Z,12.67
2018-03-17T11:49:21.828Z,10.07
2018-03-17T11:54:24.378Z,11.43
2018-03-17T11:59:26.938Z,11.37
2018-03-17T12:04:29.814Z,10.47
2018-03-17T12:09:32.386Z,10.90
2018-03-17T12:14:34.945Z,11.67
2018-03-17T12:19:37.608Z,10.83
2018-03-17T12:24:40.152Z,9.77
2018-03-17T12:29:42.712Z,9.70
2018-03-17T12:34:46.039Z,9.43
2018-03-17T12:39:48.598Z,9.50
2018-03-17T12:44:51.143Z,10.60
2018-03-17T12:49:53.704Z,9.13
2018-03-17T12:54:56.295Z,10.33
2018-03-17T12:59:59.583Z,11.50
2018-03-17T13:05:02.163Z,11.33
2018-03-17T13:10:04.732Z,11.53
2018-03-17T13:15:08.063Z,12.37
2018-03-17T13:20:10.617Z,11.50
2018-03-17T13:25:13.214Z,10.97
2018-03-17T13:30:15.820Z,12.50
2018-03-17T13:35:18.733Z,13.37
2018-03-17T13:40:32.191Z,13.83
2018-03-17T13:45:34.759Z,14.57
2018-03-17T13:50:38.200Z,14.07
2018-03-17T13:55:40.776Z,14.13
2018-03-17T14:00:43.352Z,12.77
2018-03-17T14:05:45.900Z,11.97
2018-03-17T14:10:48.538Z,13.87
2018-03-17T14:15:51.903Z,13.40
2018-03-17T14:20:54.456Z,11.90
2018-03-17T14:25:57.783Z,13.00
2018-03-17T14:31:01.129Z,10.83
2018-03-17T14:36:03.698Z,11.20
2018-03-17T14:41:06.251Z,11.97
2018-03-17T14:46:12.978Z,13.00
2018-03-17T14:51:15.546Z,12.53
2018-03-17T14:56:18.972Z,10.93
2018-03-17T15:01:21.538Z,9.70
2018-03-17T15:06:24.112Z,12.57
2018-03-17T15:11:26.716Z,12.30
2018-03-17T15:16:29.256Z,12.60
2018-03-17T15:21:31.823Z,13.77
2018-03-17T15:26:34.418Z,11.70
2018-03-17T15:31:37.763Z,13.50
2018-03-17T15:36:40.322Z,13.03
2018-03-17T15:41:42.886Z,12.30
2018-03-17T15:46:46.352Z,14.60
2018-03-17T15:51:49.270Z,11.90
2018-03-17T15:56:51.834Z,12.77
2018-03-17T16:01:55.152Z,11.20
2018-03-17T16:06:57.716Z,12.50
2018-03-17T16:12:01.177Z,12.60
2018-03-17T16:17:03.735Z,11.47
2018-03-17T16:22:06.329Z,12.10
2018-03-17T16:27:09.816Z,11.00
2018-03-17T16:37:27.571Z,12.50
2018-03-17T16:42:30.138Z,9.97
2018-03-17T16:47:32.730Z,13.53
2018-03-17T16:52:36.212Z,11.67
2018-03-17T16:57:39.584Z,11.90
2018-03-17T17:02:42.179Z,12.40
2018-03-17T17:07:44.743Z,10.10
2018-03-17T17:12:47.479Z,11.17
2018-03-17T17:17:50.419Z,12.20
2018-03-17T17:22:53.110Z,12.70
2018-03-17T17:27:55.689Z,10.50
2018-03-17T17:32:58.468Z,12.20
2018-03-17T17:38:01.002Z,13.90
2018-03-17T17:43:03.568Z,11.27
2018-03-17T17:48:06.905Z,12.00
2018-03-17T17:53:09.463Z,7.23
2018-03-17T17:58:12.119Z,13.37
2018-03-17T18:03:14.699Z,12.57
2018-03-17T18:08:17.266Z,12.30
2018-03-17T18:13:19.955Z,12.47
2018-03-17T18:18:22.751Z,10.63
2018-03-17T18:23:25.906Z,13.33
2018-03-17T18:28:28.547Z,12.60
2018-03-17T18:33:31.118Z,10.03
2018-03-17T18:38:33.645Z,8.73
2018-03-17T18:43:36.214Z,11.50
2018-03-17T18:48:38.747Z,10.73
2018-03-17T18:53:41.304Z,10.10
2018-03-17T18:58:43.850Z,11.40
2018-03-17T19:03:46.387Z,8.80
2018-03-17T19:08:49.759Z,11.23
2018-03-17T19:13:52.353Z,11.47
2018-03-17T19:18:54.917Z,11.40
2018-03-17T19:23:57.491Z,9.13
2018-03-17T19:29:00.059Z,10.77
2018-03-17T19:34:02.631Z,8.77
2018-03-17T19:39:05.211Z,11.40
2018-03-17T19:44:07.808Z,10.10
2018-03-17T19:49:10.370Z,10.60
2018-03-17T19:54:12.945Z,9.77
2018-03-17T19:59:15.536Z,10.07
2018-03-17T20:04:19.876Z,11.20
2018-03-17T20:09:22.440Z,10.13
2018-03-17T20:14:25.792Z,10.90
2018-03-17T20:19:28.344Z,8.20
2018-03-17T20:24:30.916Z,12.13
2018-03-17T20:29:33.479Z,12.77
2018-03-17T20:34:36.026Z,8.80
2018-03-17T20:39:38.613Z,11.83
2018-03-17T20:44:41.159Z,11.40
2018-03-17T20:49:43.752Z,12.43
2018-03-17T20:54:46.325Z,6.17
2018-03-17T20:59:48.898Z,12.10
2018-03-17T21:04:51.458Z,12.07
2018-03-17T21:09:54.025Z,10.17
2018-03-17T21:14:56.589Z,13.13
2018-03-17T21:19:59.204Z,12.80
2018-03-17T21:25:01.794Z,11.70
2018-03-17T21:30:04.368Z,11.07
2018-03-17T21:35:06.964Z,11.27
2018-03-17T21:40:09.525Z,11.87
2018-03-17T21:45:12.114Z,13.27
2018-03-17T21:50:14.694Z,13.17
2018-03-17T21:55:17.315Z,14.20
2018-03-17T22:00:19.890Z,9.90
2018-03-17T22:05:22.490Z,12.57
2018-03-17T22:10:25.081Z,12.53
2018-03-17T22:15:28.426Z,13.30
2018-03-17T22:20:30.984Z,12.50
2018-03-17T22:25:33.540Z,9.03
2018-03-17T22:30:36.110Z,8.00
2018-03-17T22:35:39.452Z,4.67
2018-03-17T22:40:42.032Z,8.30
2018-03-17T22:45:44.586Z,9.20
2018-03-17T22:50:47.170Z,12.83
2018-03-17T22:55:49.743Z,14.03
2018-03-17T23:00:52.330Z,8.40
2018-03-17T23:05:54.959Z,9.93
2018-03-17T23:10:57.574Z,12.60
2018-03-17T23:16:00.447Z,16.10
2018-03-17T23:21:03.128Z,14.97
2018-03-17T23:26:06.493Z,10.23
2018-03-17T23:31:09.073Z,12.07
2018-03-17T23:36:11.656Z,11.00
2018-03-17T23:41:14.237Z,10.90
2018-03-17T23:46:16.828Z,10.23
2018-03-17T23:51:19.404Z,13.13
2018-03-17T23:56:21.995Z,11.83
